Time;durP1;ratioP1;P1;durP2;ratioP2;P2;SDS_P1;SDS_P2;PMS_P1;PMS_P2;Temp;Humidity;BMP_temperature;BMP_pressure;BME280_temperature;BME280_humidity;BME280_pressure;Samples;Min_cycle;Max_cycle;Signal;HPM_P1;HPM_P2
2021/11/11 00:01:29;;;;;;;8.02;3.95;;;6.10;99.90;;;;;;5051959;28;20048;-76
2021/11/11 00:03:59;;;;;;;9.18;4.20;;;5.90;99.90;;;;;;5037276;28;20048;-76
2021/11/11 00:06:29;;;;;;;13.05;4.30;;;5.90;99.90;;;;;;5056170;28;20067;-76
2021/11/11 00:09:00;;;;;;;10.83;5.37;;;5.90;99.90;;;;;;5053602;28;20048;-76
2021/11/11 00:11:29;;;;;;;9.32;4.68;;;5.90;99.90;;;;;;5053846;28;20506;-77
2021/11/11 00:13:57;;;;;;;10.45;4.93;;;6.00;99.90;;;;;;5052668;28;20083;-76
2021/11/11 00:16:26;;;;;;;8.82;4.18;;;6.10;99.90;;;;;;5054488;28;20093;-76
2021/11/11 00:18:55;;;;;;;10.20;4.20;;;6.10;99.90;;;;;;5048767;28;20048;-76
2021/11/11 00:21:26;;;;;;;11.67;3.63;;;6.10;99.90;;;;;;5061892;28;20060;-76
2021/11/11 00:23:55;;;;;;;10.85;4.75;;;6.10;99.90;;;;;;5051061;28;20057;-76
2021/11/11 00:26:24;;;;;;;10.10;4.60;;;6.30;99.90;;;;;;5051944;28;20679;-76
2021/11/11 00:28:56;;;;;;;9.80;4.72;;;6.30;99.90;;;;;;5040810;28;20229;-76
2021/11/11 00:31:25;;;;;;;10.60;4.47;;;6.30;99.90;;;;;;5053366;28;20084;-76
2021/11/11 00:33:54;;;;;;;12.27;4.27;;;6.20;99.90;;;;;;5066911;28;20059;-76
2021/11/11 00:36:24;;;;;;;11.07;4.43;;;5.80;99.90;;;;;;5056183;28;20533;-76
2021/11/11 00:38:53;;;;;;;9.70;4.40;;;5.90;99.90;;;;;;5049410;28;20132;-76
2021/11/11 00:41:21;;;;;;;8.15;3.80;;;6.00;99.90;;;;;;5052401;28;20055;-76
2021/11/11 00:43:50;;;;;;;10.13;4.70;;;6.00;99.90;;;;;;5054625;28;20048;-76
2021/11/11 00:46:18;;;;;;;6.50;3.70;;;5.90;99.90;;;;;;5053521;28;20136;-76
2021/11/11 00:48:48;;;;;;;6.97;3.88;;;6.00;99.90;;;;;;5055599;28;20117;-76
2021/11/11 00:51:17;;;;;;;11.25;4.43;;;6.10;99.90;;;;;;5067349;28;20067;-76
2021/11/11 00:53:47;;;;;;;10.35;3.78;;;6.10;99.90;;;;;;5063136;28;20060;-76
2021/11/11 00:56:15;;;;;;;7.55;3.90;;;6.10;99.90;;;;;;5051479;28;20044;-76
2021/11/11 00:58:46;;;;;;;7.57;3.77;;;6.20;99.90;;;;;;5032105;28;20068;-76
2021/11/11 01:01:14;;;;;;;11.05;4.35;;;6.20;99.90;;;;;;5054769;28;20063;-75
2021/11/11 01:03:43;;;;;;;9.48;4.00;;;6.30;99.90;;;;;;5052637;28;20052;-77
2021/11/11 01:06:11;;;;;;;9.38;3.45;;;6.10;99.90;;;;;;5033793;28;20056;-76
2021/11/11 01:08:39;;;;;;;7.78;4.00;;;5.70;99.90;;;;;;5051846;28;20058;-76
2021/11/11 01:11:15;;;;;;;12.57;5.67;;;5.00;99.90;;;;;;5052784;28;20092;-78
2021/11/11 01:13:43;;;;;;;13.55;5.40;;;4.80;99.90;;;;;;5058410;28;20052;-76
2021/11/11 01:19:04;;;;;;;10.75;5.03;;;5.10;99.90;;;;;;5049228;28;20109;-76
2021/11/11 01:21:33;;;;;;;10.07;5.00;;;4.80;99.90;;;;;;5047610;28;20059;-76
2021/11/11 01:26:56;;;;;;;13.20;6.05;;;4.70;99.90;;;;;;5053512;28;20040;-76
2021/11/11 01:29:25;;;;;;;13.15;6.40;;;5.10;99.90;;;;;;5052720;28;20076;-76
2021/11/11 01:31:54;;;;;;;13.05;5.90;;;5.10;99.90;;;;;;5037382;28;20044;-77
2021/11/11 01:34:27;;;;;;;13.13;6.60;;;5.10;99.90;;;;;;5040811;28;20060;-79
2021/11/11 01:37:00;;;;;;;15.50;7.23;;;5.10;99.90;;;;;;5056065;28;20052;-76
2021/11/11 01:39:33;;;;;;;13.02;7.25;;;5.00;99.90;;;;;;5039746;28;20094;-76
2021/11/11 01:42:06;;;;;;;12.15;6.63;;;4.80;99.90;;;;;;5038662;28;20052;-76
2021/11/11 01:44:36;;;;;;;12.48;6.10;;;4.60;99.90;;;;;;5032613;28;20475;-76
2021/11/11 01:47:05;;;;;;;11.52;6.13;;;4.70;99.90;;;;;;5037673;28;20044;-78
2021/11/11 01:49:33;;;;;;;16.97;7.03;;;4.60;99.90;;;;;;5055654;28;20122;-76
2021/11/11 01:52:03;;;;;;;19.13;8.82;;;4.50;99.90;;;;;;5050592;28;20511;-76
2021/11/11 01:54:32;;;;;;;19.15;9.13;;;4.60;99.90;;;;;;5036924;28;20060;-77
2021/11/11 01:57:01;;;;;;;17.27;8.77;;;4.50;99.90;;;;;;5051800;28;20041;-77
2021/11/11 01:59:34;;;;;;;21.67;7.85;;;4.40;99.90;;;;;;5048684;28;20138;-76
2021/11/11 02:02:07;;;;;;;15.10;6.53;;;4.50;99.90;;;;;;5050360;28;20041;-76
2021/11/11 02:04:42;;;;;;;18.58;8.10;;;4.60;99.90;;;;;;5033980;28;20068;-76
2021/11/11 02:07:12;;;;;;;14.60;6.00;;;4.60;99.90;;;;;;5036589;28;20116;-76
2021/11/11 02:09:50;;;;;;;19.48;8.00;;;4.60;99.90;;;;;;5035721;28;20094;-76
2021/11/11 02:12:30;;;;;;;17.73;7.55;;;4.30;99.90;;;;;;5051489;28;20056;-77
2021/11/11 02:15:05;;;;;;;10.27;5.57;;;4.40;99.90;;;;;;5041125;28;20068;-76
2021/11/11 02:17:35;;;;;;;13.50;6.70;;;3.80;99.90;;;;;;5032678;28;20114;-76
2021/11/11 02:20:17;;;;;;;15.55;6.43;;;3.80;99.90;;;;;;5047270;28;20045;-76
2021/11/11 02:23:24;;;;;;;16.67;6.20;;;4.10;99.90;;;;;;5040981;28;20524;-77
2021/11/11 02:26:22;;;;;;;10.40;5.22;;;3.60;99.90;;;;;;5039129;28;20145;-76
2021/11/11 02:29:04;;;;;;;19.73;6.70;;;3.90;99.90;;;;;;5039323;28;20110;-76
2021/11/11 02:31:35;;;;;;;14.30;6.15;;;4.20;99.90;;;;;;5036600;28;20495;-76
2021/11/11 02:34:04;;;;;;;10.43;4.82;;;4.30;99.90;;;;;;5054308;28;20135;-76
2021/11/11 02:36:56;;;;;;;18.02;6.35;;;4.50;99.90;;;;;;5048735;28;20091;-77
2021/11/11 02:39:31;;;;;;;10.02;5.95;;;4.70;99.90;;;;;;5035198;28;20120;-76
2021/11/11 02:42:00;;;;;;;12.53;5.90;;;4.80;99.90;;;;;;5054394;28;20370;-76
2021/11/11 02:44:32;;;;;;;8.77;4.72;;;4.90;99.90;;;;;;5049241;28;20135;-79
2021/11/11 02:47:03;;;;;;;11.50;7.00;;;5.00;99.90;;;;;;5039232;28;20056;-77
2021/11/11 02:49:38;;;;;;;17.05;5.70;;;5.10;99.90;;;;;;5024627;28;20077;-76
2021/11/11 02:52:09;;;;;;;11.82;5.60;;;5.10;99.90;;;;;;5034190;28;20546;-76
2021/11/11 02:55:03;;;;;;;8.37;5.07;;;5.20;99.90;;;;;;5033305;28;20052;-76
2021/11/11 02:57:35;;;;;;;14.18;4.88;;;5.30;99.90;;;;;;5030455;28;20175;-75
2021/11/11 03:00:11;;;;;;;13.98;5.78;;;5.20;99.90;;;;;;5035899;28;20056;-75
2021/11/11 03:02:46;;;;;;;10.07;5.38;;;5.10;99.90;;;;;;5064580;28;20058;-76
2021/11/11 03:05:22;;;;;;;12.10;5.60;;;5.40;99.90;;;;;;5026150;28;20053;-76
2021/11/11 03:07:52;;;;;;;16.33;5.47;;;5.10;99.90;;;;;;5048761;28;20068;-76
2021/11/11 03:10:25;;;;;;;10.43;5.43;;;4.70;99.90;;;;;;5037811;28;20052;-76
2021/11/11 03:12:57;;;;;;;13.35;5.93;;;4.40;99.90;;;;;;5032349;28;20127;-76
2021/11/11 03:15:29;;;;;;;10.23;4.85;;;4.50;99.90;;;;;;5034746;28;20045;-75
2021/11/11 03:17:59;;;;;;;12.95;5.85;;;4.50;99.90;;;;;;5033360;28;20067;-75
2021/11/11 03:20:28;;;;;;;12.27;6.10;;;4.60;99.90;;;;;;5049555;28;20052;-76
2021/11/11 03:22:59;;;;;;;15.88;5.95;;;4.60;99.90;;;;;;5046689;28;20052;-76
2021/11/11 03:25:31;;;;;;;11.95;5.70;;;4.50;99.90;;;;;;5033357;28;20149;-75
2021/11/11 03:28:01;;;;;;;12.18;5.82;;;4.40;99.90;;;;;;5034557;28;20131;-76
2021/11/11 03:30:58;;;;;;;12.63;5.95;;;4.40;99.90;;;;;;5052870;28;20201;-75
2021/11/11 03:33:27;;;;;;;9.83;4.60;;;4.50;99.90;;;;;;5036263;28;20139;-76
2021/11/11 03:35:56;;;;;;;10.80;5.30;;;4.50;99.90;;;;;;5053018;28;20052;-75
2021/11/11 03:38:26;;;;;;;10.45;5.28;;;4.40;99.90;;;;;;5035880;28;20053;-75
2021/11/11 03:40:55;;;;;;;10.23;5.28;;;4.40;99.90;;;;;;5050986;28;20052;-75
2021/11/11 03:43:32;;;;;;;13.85;5.75;;;4.50;99.90;;;;;;5038403;28;20115;-75
2021/11/11 03:46:14;;;;;;;9.23;4.07;;;4.40;99.90;;;;;;5053996;28;20052;-76
2021/11/11 03:48:49;;;;;;;8.75;4.70;;;3.90;99.90;;;;;;5053318;28;20098;-76
2021/11/11 03:51:21;;;;;;;9.30;4.38;;;3.90;99.90;;;;;;5059218;28;20398;-77
2021/11/11 03:53:54;;;;;;;12.98;5.25;;;3.70;99.90;;;;;;5031255;28;20056;-76
2021/11/11 03:56:24;;;;;;;7.97;4.03;;;3.40;99.90;;;;;;5039702;28;20186;-77
2021/11/11 03:58:56;;;;;;;9.90;4.37;;;3.40;99.90;;;;;;5033809;28;20071;-76
2021/11/11 04:01:29;;;;;;;13.20;5.80;;;3.40;99.90;;;;;;5035943;28;20494;-76
2021/11/11 04:03:57;;;;;;;13.23;6.22;;;3.70;99.90;;;;;;5045708;28;20059;-76
2021/11/11 04:06:26;;;;;;;8.30;5.13;;;3.90;99.90;;;;;;5033929;28;20111;-76
2021/11/11 04:08:59;;;;;;;10.90;5.15;;;3.90;99.90;;;;;;5027158;28;20079;-76
2021/11/11 04:11:51;;;;;;;11.33;5.97;;;3.90;99.90;;;;;;5049009;28;20178;-76
2021/11/11 04:14:20;;;;;;;13.52;6.30;;;4.00;99.90;;;;;;5038546;28;20053;-76
2021/11/11 04:16:49;;;;;;;13.27;5.53;;;4.20;99.90;;;;;;5053900;28;20079;-76
2021/11/11 04:22:11;;;;;;;10.85;6.00;;;4.30;99.90;;;;;;5046718;28;20052;-78
2021/11/11 04:24:45;;;;;;;13.37;5.73;;;4.40;99.90;;;;;;5034135;28;20151;-76
2021/11/11 04:27:19;;;;;;;11.68;6.78;;;4.30;99.90;;;;;;5035899;28;20439;-77
2021/11/11 04:29:56;;;;;;;11.15;5.75;;;4.40;99.90;;;;;;5051359;28;20087;-75
2021/11/11 04:32:25;;;;;;;12.40;6.13;;;4.40;99.90;;;;;;5051452;28;20037;-76
2021/11/11 04:34:58;;;;;;;11.55;5.60;;;4.50;99.90;;;;;;5050861;28;20116;-75
2021/11/11 04:37:33;;;;;;;13.33;5.87;;;4.50;99.90;;;;;;5034361;28;20055;-76
2021/11/11 04:43:14;;;;;;;17.40;6.75;;;4.50;99.90;;;;;;5053732;28;20062;-79
2021/11/11 04:48:50;;;;;;;11.45;5.70;;;4.50;99.90;;;;;;5035941;28;20091;-77
2021/11/11 05:00:03;;;;;;;14.02;5.00;;;4.40;99.90;;;;;;5040674;28;20044;-83
2021/11/11 05:05:16;;;;;;;13.93;6.47;;;4.50;99.90;;;;;;5024270;28;20518;-75
2021/11/11 05:07:47;;;;;;;11.38;5.78;;;4.60;99.90;;;;;;5027277;28;20080;-76
2021/11/11 05:10:16;;;;;;;12.10;5.97;;;4.60;99.90;;;;;;5012011;28;20407;-75
2021/11/11 05:12:48;;;;;;;13.45;6.32;;;4.60;99.90;;;;;;5032076;28;20061;-75
2021/11/11 05:15:19;;;;;;;12.50;6.85;;;4.50;99.90;;;;;;5016407;28;20531;-75
2021/11/11 05:17:53;;;;;;;17.63;6.70;;;4.40;99.90;;;;;;5013825;28;20063;-75
2021/11/11 05:20:26;;;;;;;23.00;7.38;;;4.40;99.90;;;;;;5010078;28;20120;-75
2021/11/11 05:22:55;;;;;;;15.40;6.55;;;4.50;99.90;;;;;;5030058;28;20053;-75
2021/11/11 05:25:24;;;;;;;10.32;4.85;;;4.30;99.90;;;;;;5034850;28;20452;-75
2021/11/11 05:27:57;;;;;;;14.35;7.30;;;4.10;99.90;;;;;;5014708;28;20092;-75
2021/11/11 05:30:27;;;;;;;9.93;5.50;;;4.00;99.90;;;;;;5008232;28;20056;-76
2021/11/11 05:32:56;;;;;;;12.23;6.70;;;4.20;99.90;;;;;;5010675;28;20149;-76
2021/11/11 05:35:39;;;;;;;11.45;6.50;;;4.00;99.90;;;;;;5014993;28;20173;-79
2021/11/11 05:38:11;;;;;;;10.38;6.47;;;3.90;99.90;;;;;;5063373;28;20110;-78
2021/11/11 05:40:40;;;;;;;10.13;4.93;;;3.80;99.90;;;;;;5024313;28;20053;-77
2021/11/11 05:43:10;;;;;;;9.93;4.77;;;4.00;99.90;;;;;;5033459;28;20045;-77
2021/11/11 05:45:39;;;;;;;14.57;6.90;;;4.10;99.90;;;;;;5023575;28;20060;-78
2021/11/11 05:48:08;;;;;;;10.27;5.50;;;4.00;99.90;;;;;;5037051;28;20060;-76
2021/11/11 05:50:40;;;;;;;11.45;6.60;;;4.00;99.90;;;;;;5031054;28;20048;-75
2021/11/11 05:53:13;;;;;;;11.15;5.28;;;4.20;99.90;;;;;;5021831;28;20040;-76
2021/11/11 05:55:43;;;;;;;9.07;5.30;;;4.00;99.90;;;;;;5030027;28;20488;-77
2021/11/11 05:58:17;;;;;;;8.15;4.93;;;4.00;99.90;;;;;;5017092;28;20048;-77
2021/11/11 06:00:46;;;;;;;13.52;5.07;;;4.10;99.90;;;;;;5029802;28;20072;-78
2021/11/11 06:03:20;;;;;;;8.73;5.68;;;3.90;99.90;;;;;;5048287;28;20184;-76
2021/11/11 06:08:52;;;;;;;8.33;4.03;;;4.10;99.90;;;;;;5055963;28;20052;-77
2021/11/11 06:11:22;;;;;;;10.65;5.22;;;3.70;99.90;;;;;;5067517;28;20040;-76
2021/11/11 06:13:52;;;;;;;9.93;4.75;;;3.30;99.90;;;;;;5050184;28;20048;-75
2021/11/11 06:16:21;;;;;;;9.55;4.30;;;3.40;99.90;;;;;;5049935;28;20459;-75
2021/11/11 06:18:54;;;;;;;10.50;5.65;;;3.60;99.90;;;;;;5053572;28;20044;-75
2021/11/11 06:21:24;;;;;;;9.20;4.33;;;3.80;99.90;;;;;;5033865;28;20530;-75
2021/11/11 06:23:55;;;;;;;8.10;4.80;;;3.70;99.90;;;;;;5040057;28;20052;-78
2021/11/11 06:26:29;;;;;;;9.13;5.43;;;3.70;99.90;;;;;;5036595;28;20130;-76
2021/11/11 06:29:05;;;;;;;9.80;5.95;;;4.10;99.90;;;;;;5034631;28;20768;-77
2021/11/11 06:31:35;;;;;;;9.40;5.03;;;4.10;99.90;;;;;;5039690;28;20052;-76
2021/11/11 06:34:04;;;;;;;9.17;5.00;;;4.10;99.90;;;;;;5035567;28;20049;-76
2021/11/11 06:36:33;;;;;;;10.73;5.47;;;4.20;99.90;;;;;;5048294;28;20116;-75
2021/11/11 06:39:01;;;;;;;9.23;5.80;;;4.20;99.90;;;;;;5053760;28;20258;-76
2021/11/11 06:41:29;;;;;;;11.32;4.97;;;4.30;99.90;;;;;;5051949;28;20041;-75
2021/11/11 06:43:58;;;;;;;14.00;6.53;;;4.30;99.90;;;;;;5065560;28;20107;-75
2021/11/11 06:46:28;;;;;;;9.10;4.37;;;4.40;99.90;;;;;;5060524;28;20056;-75
2021/11/11 06:48:56;;;;;;;11.32;5.93;;;4.20;99.90;;;;;;5055034;28;20483;-75
2021/11/11 06:51:26;;;;;;;10.50;5.43;;;3.90;99.90;;;;;;5033532;28;20050;-75
2021/11/11 06:53:55;;;;;;;12.27;6.13;;;3.50;99.90;;;;;;5053537;28;20541;-75
2021/11/11 06:56:24;;;;;;;10.57;5.00;;;3.20;99.90;;;;;;5067691;28;20045;-75
2021/11/11 06:58:52;;;;;;;12.90;5.43;;;3.40;99.90;;;;;;5044642;28;20135;-75
2021/11/11 07:01:22;;;;;;;9.27;4.90;;;3.60;99.90;;;;;;5044507;28;20052;-74
2021/11/11 07:03:53;;;;;;;12.65;5.63;;;3.70;99.90;;;;;;5034943;28;20082;-75
2021/11/11 07:06:22;;;;;;;17.13;5.78;;;3.80;99.90;;;;;;5037641;28;20123;-74
2021/11/11 07:08:51;;;;;;;9.30;5.13;;;3.90;99.90;;;;;;5059561;28;20080;-75
2021/11/11 07:11:20;;;;;;;8.20;4.77;;;3.90;99.90;;;;;;5061687;28;20065;-75
2021/11/11 07:13:49;;;;;;;9.23;5.80;;;4.00;99.90;;;;;;5026103;28;20137;-75
2021/11/11 07:16:17;;;;;;;8.52;4.30;;;4.20;99.90;;;;;;5049482;28;20045;-75
2021/11/11 07:18:46;;;;;;;11.40;4.70;;;4.00;99.90;;;;;;5055932;28;20419;-75
2021/11/11 07:21:22;;;;;;;9.32;5.55;;;3.80;99.90;;;;;;5055254;28;20052;-76
2021/11/11 07:23:51;;;;;;;9.73;5.60;;;4.00;99.90;;;;;;5050487;28;20415;-75
2021/11/11 07:26:20;;;;;;;11.35;6.15;;;4.20;99.90;;;;;;5051212;28;20414;-75
2021/11/11 07:29:15;;;;;;;13.52;6.40;;;4.40;99.90;;;;;;5056807;28;20125;-75
2021/11/11 07:31:45;;;;;;;12.30;7.00;;;4.40;99.90;;;;;;5053625;28;20094;-76
2021/11/11 07:34:15;;;;;;;10.15;4.40;;;4.80;99.90;;;;;;5061666;28;20117;-75
2021/11/11 07:36:45;;;;;;;10.67;6.17;;;4.90;99.90;;;;;;5056629;28;20096;-75
2021/11/11 07:39:15;;;;;;;10.30;5.38;;;4.80;99.90;;;;;;5045318;28;20051;-76
2021/11/11 07:41:45;;;;;;;8.18;5.20;;;4.50;99.90;;;;;;5048128;28;20513;-78
2021/11/11 07:44:17;;;;;;;10.32;5.47;;;4.60;99.90;;;;;;5058329;28;20051;-75
2021/11/11 07:46:46;;;;;;;16.40;7.45;;;4.70;99.90;;;;;;5045012;28;20557;-75
2021/11/11 07:49:15;;;;;;;11.43;6.07;;;4.60;99.90;;;;;;5050578;28;20407;-76
2021/11/11 07:51:46;;;;;;;12.57;5.70;;;4.70;99.90;;;;;;5048497;28;20494;-75
2021/11/11 07:54:14;;;;;;;8.15;4.53;;;4.70;99.90;;;;;;5050572;28;20059;-75
2021/11/11 07:56:43;;;;;;;13.98;6.07;;;4.70;99.90;;;;;;5061921;28;20048;-76
2021/11/11 07:59:14;;;;;;;10.20;5.47;;;4.70;99.90;;;;;;5059912;28;20141;-75
2021/11/11 08:01:42;;;;;;;9.73;5.17;;;4.70;99.90;;;;;;5060694;28;20088;-75
2021/11/11 08:04:14;;;;;;;11.38;5.95;;;4.60;99.90;;;;;;5059057;28;20502;-76
2021/11/11 08:06:42;;;;;;;8.60;5.13;;;4.60;99.90;;;;;;5057037;28;20114;-75
2021/11/11 08:09:12;;;;;;;9.60;5.18;;;4.80;99.90;;;;;;5046287;28;20048;-75
2021/11/11 08:11:40;;;;;;;11.93;5.55;;;4.70;99.90;;;;;;5062014;28;20052;-75
2021/11/11 08:14:09;;;;;;;7.83;3.83;;;4.80;99.90;;;;;;5058848;28;20521;-75
2021/11/11 08:16:38;;;;;;;8.07;5.40;;;4.70;99.90;;;;;;5059598;28;20067;-75
2021/11/11 08:19:06;;;;;;;10.65;5.47;;;4.60;99.90;;;;;;5058780;28;20052;-75
2021/11/11 08:21:35;;;;;;;9.65;5.35;;;4.50;99.90;;;;;;5066965;28;20101;-75
2021/11/11 08:24:04;;;;;;;8.55;4.72;;;4.70;99.90;;;;;;5063691;28;20053;-75
2021/11/11 08:26:59;;;;;;;9.27;5.17;;;5.00;99.90;;;;;;5052046;28;20174;-75
2021/11/11 08:29:28;;;;;;;11.07;5.70;;;5.10;99.90;;;;;;5059403;28;20149;-75
2021/11/11 08:31:57;;;;;;;8.65;4.63;;;5.30;99.90;;;;;;5060296;28;20434;-75
2021/11/11 08:34:25;;;;;;;7.13;4.60;;;5.60;99.90;;;;;;5053446;28;20072;-76
2021/11/11 08:36:54;;;;;;;7.47;4.22;;;5.50;99.90;;;;;;5032123;28;20079;-75
2021/11/11 08:39:23;;;;;;;7.27;4.40;;;5.50;99.90;;;;;;5051534;28;20147;-75
2021/11/11 08:41:53;;;;;;;13.32;4.32;;;5.60;99.90;;;;;;5040718;28;20045;-75
2021/11/11 08:44:23;;;;;;;10.15;4.07;;;5.80;99.90;;;;;;5053736;28;20047;-75
2021/11/11 08:46:52;;;;;;;8.77;4.60;;;5.80;99.90;;;;;;5027273;28;20095;-75
2021/11/11 08:49:21;;;;;;;11.15;5.40;;;6.00;99.90;;;;;;5053691;28;20364;-76
2021/11/11 08:51:52;;;;;;;11.70;5.60;;;6.10;99.90;;;;;;5059919;28;20079;-75
2021/11/11 08:54:24;;;;;;;8.70;4.97;;;6.30;99.90;;;;;;5062786;28;20048;-75
2021/11/11 08:56:54;;;;;;;8.35;4.72;;;6.50;99.90;;;;;;5053600;28;20115;-75
2021/11/11 08:59:25;;;;;;;13.32;5.10;;;6.50;99.90;;;;;;5056373;28;20075;-76
2021/11/11 09:01:54;;;;;;;15.25;5.47;;;6.50;99.90;;;;;;5048468;28;20067;-75
2021/11/11 09:04:24;;;;;;;15.80;7.40;;;6.60;99.90;;;;;;5051498;28;20048;-76
2021/11/11 09:06:53;;;;;;;17.83;7.53;;;6.10;99.90;;;;;;5049178;28;20056;-75
2021/11/11 09:09:48;;;;;;;19.30;7.47;;;6.10;99.90;;;;;;5047226;28;20095;-75
2021/11/11 09:12:16;;;;;;;13.40;7.00;;;6.10;99.90;;;;;;5041792;28;20044;-76
2021/11/11 09:14:46;;;;;;;14.25;6.20;;;5.70;99.90;;;;;;5053290;28;20052;-76
2021/11/11 09:17:15;;;;;;;19.23;7.70;;;5.00;99.90;;;;;;5046210;28;20060;-76
2021/11/11 09:19:43;;;;;;;8.88;6.30;;;4.60;99.90;;;;;;5054974;28;20514;-75
2021/11/11 09:22:12;;;;;;;10.48;6.63;;;4.40;99.90;;;;;;5052616;28;20056;-76
2021/11/11 09:24:41;;;;;;;13.63;7.13;;;4.10;99.90;;;;;;5047016;28;20126;-75
2021/11/11 09:27:10;;;;;;;20.38;9.20;;;4.30;99.90;;;;;;5055978;28;20114;-76
2021/11/11 09:29:39;;;;;;;17.43;6.43;;;4.40;99.90;;;;;;5066741;28;20108;-75
2021/11/11 09:32:10;;;;;;;17.35;7.75;;;4.50;99.90;;;;;;5068883;28;20080;-76
2021/11/11 09:34:39;;;;;;;15.27;6.72;;;4.90;99.90;;;;;;5067309;28;20044;-75
2021/11/11 09:37:08;;;;;;;14.82;7.07;;;5.40;99.90;;;;;;5044605;28;20056;-77
2021/11/11 09:39:37;;;;;;;18.15;8.68;;;5.40;99.90;;;;;;5059399;28;20057;-76
2021/11/11 09:42:06;;;;;;;16.03;6.87;;;5.30;99.90;;;;;;5044300;28;20036;-75
2021/11/11 09:44:35;;;;;;;15.95;7.53;;;5.40;99.90;;;;;;5051812;28;20064;-76
2021/11/11 09:47:05;;;;;;;14.10;7.07;;;5.40;99.90;;;;;;5045392;28;20115;-75
2021/11/11 09:49:35;;;;;;;13.73;6.70;;;5.50;99.90;;;;;;5055375;28;20068;-75
2021/11/11 09:52:06;;;;;;;15.95;7.68;;;5.60;99.90;;;;;;5067853;28;20079;-75
2021/11/11 10:00:08;;;;;;;20.52;8.57;;;6.50;99.90;;;;;;5040611;28;20044;-76
2021/11/11 10:02:40;;;;;;;16.60;7.43;;;6.80;99.90;;;;;;5064585;28;20132;-79
2021/11/11 10:05:11;;;;;;;18.45;7.82;;;6.90;99.90;;;;;;5062619;28;20044;-76
2021/11/11 10:07:39;;;;;;;14.80;8.00;;;7.10;99.90;;;;;;5061870;28;20056;-76
2021/11/11 10:10:09;;;;;;;16.52;7.88;;;6.70;99.90;;;;;;5062181;28;20151;-78
2021/11/11 10:12:39;;;;;;;21.30;8.10;;;7.00;99.90;;;;;;5060904;28;20048;-81
2021/11/11 10:15:10;;;;;;;17.33;7.82;;;7.30;99.90;;;;;;5052010;28;20040;-76
2021/11/11 10:17:42;;;;;;;;;;;7.50;99.90;;;;;;5048252;28;20053;-75
2021/11/11 10:20:37;;;;;;;13.65;7.50;;;7.50;99.90;;;;;;5054189;28;19987;-75
2021/11/11 10:23:22;;;;;;;15.27;7.10;;;7.50;99.90;;;;;;5056284;28;20055;-76
2021/11/11 10:26:23;;;;;;;14.50;7.60;;;7.30;99.90;;;;;;5053600;28;20044;-76
2021/11/11 10:31:52;;;;;;;14.30;7.30;;;7.50;99.90;;;;;;5049723;28;20355;-76
2021/11/11 10:34:22;;;;;;;18.45;8.38;;;7.20;99.90;;;;;;5048108;28;20391;-75
2021/11/11 10:36:54;;;;;;;18.07;7.93;;;7.10;99.90;;;;;;5051899;28;20087;-76
2021/11/11 10:39:26;;;;;;;17.88;9.18;;;7.10;99.90;;;;;;5057111;28;20126;-76
2021/11/11 10:41:57;;;;;;;18.42;7.82;;;7.10;99.90;;;;;;5058262;28;20131;-76
2021/11/11 10:44:30;;;;;;;17.13;7.45;;;7.20;99.90;;;;;;5055165;28;20040;-75
2021/11/11 10:47:00;;;;;;;16.33;8.35;;;7.40;99.90;;;;;;5060100;28;20106;-75
2021/11/11 10:49:34;;;;;;;17.43;9.27;;;7.50;99.90;;;;;;5036495;28;20130;-76
2021/11/11 10:52:27;;;;;;;20.67;9.20;;;7.70;99.90;;;;;;5063433;28;20151;-76
2021/11/11 10:55:11;;;;;;;16.88;7.20;;;8.00;99.90;;;;;;5057326;28;20082;-76
2021/11/11 10:57:44;;;;;;;21.45;9.38;;;7.90;99.90;;;;;;5060081;28;20109;-76
2021/11/11 11:00:33;;;;;;;20.48;9.02;;;7.90;99.90;;;;;;5052323;28;20096;-75
2021/11/11 11:03:05;;;;;;;24.70;9.73;;;7.90;99.90;;;;;;5052294;28;20161;-76
2021/11/11 11:05:41;;;;;;;21.23;9.95;;;7.90;99.90;;;;;;5048679;28;20059;-76
2021/11/11 11:08:14;;;;;;;26.23;10.82;;;7.90;99.90;;;;;;5058726;28;20048;-76
2021/11/11 11:10:46;;;;;;;22.30;9.23;;;8.10;99.90;;;;;;5051460;28;20076;-76
2021/11/11 11:13:18;;;;;;;19.70;9.77;;;8.10;99.90;;;;;;5063515;28;20109;-76
2021/11/11 11:15:50;;;;;;;20.73;9.43;;;7.90;99.90;;;;;;5050996;28;20084;-76
2021/11/11 11:18:21;;;;;;;19.92;9.75;;;7.60;99.90;;;;;;5048418;28;20051;-75
2021/11/11 11:20:56;;;;;;;20.90;9.13;;;7.60;99.90;;;;;;5051449;28;20098;-75
2021/11/11 11:23:31;;;;;;;25.90;10.88;;;7.20;99.90;;;;;;5050956;28;20045;-76
2021/11/11 11:26:28;;;;;;;19.45;9.50;;;6.90;99.90;;;;;;5051831;28;20044;-75
2021/11/11 11:29:06;;;;;;;24.00;11.23;;;6.80;99.90;;;;;;5052720;28;20094;-76
2021/11/11 11:31:43;;;;;;;23.42;11.35;;;7.00;99.90;;;;;;5067402;28;20146;-76
2021/11/11 11:34:15;;;;;;;21.63;10.00;;;7.40;99.90;;;;;;5042743;28;20131;-75
2021/11/11 11:36:49;;;;;;;21.65;10.60;;;7.60;99.90;;;;;;5064655;28;20040;-77
2021/11/11 11:39:28;;;;;;;20.85;10.23;;;7.70;99.90;;;;;;5056353;28;20087;-76
2021/11/11 11:41:59;;;;;;;21.00;10.50;;;7.30;99.90;;;;;;5042265;28;20437;-76
2021/11/11 11:44:41;;;;;;;18.02;9.73;;;7.20;99.90;;;;;;5057337;28;20144;-78
2021/11/11 11:47:18;;;;;;;24.67;11.68;;;7.40;99.90;;;;;;5057632;28;20143;-76
2021/11/11 11:49:51;;;;;;;17.48;9.95;;;7.70;99.90;;;;;;5051621;28;20080;-76
2021/11/11 11:52:47;;;;;;;25.45;10.73;;;7.60;99.90;;;;;;5063073;28;20062;-76
2021/11/11 11:55:23;;;;;;;25.23;10.47;;;7.70;99.90;;;;;;5055439;28;20041;-76
2021/11/11 11:57:59;;;;;;;30.05;10.50;;;7.90;99.90;;;;;;5065396;28;20072;-76
2021/11/11 12:03:28;;;;;;;22.95;10.43;;;8.40;99.90;;;;;;5049109;28;19928;-77
2021/11/11 12:09:06;;;;;;;25.08;11.23;;;8.50;99.90;;;;;;5031389;28;20143;-77
2021/11/11 12:14:31;;;;;;;23.43;11.53;;;8.80;99.90;;;;;;5054040;28;20048;-77
2021/11/11 12:28:46;;;;;;;19.27;9.93;;;8.60;99.90;;;;;;5051073;28;20139;-77
2021/11/11 12:40:25;;;;;;;21.25;11.32;;;9.10;99.90;;;;;;5060235;28;20045;-77
2021/11/11 12:42:56;;;;;;;24.10;11.20;;;9.10;99.90;;;;;;5052654;28;20189;-78
2021/11/11 12:45:36;;;;;;;19.95;9.48;;;9.30;99.90;;;;;;5061409;28;20055;-77
2021/11/11 12:48:20;;;;;;;22.17;10.50;;;9.40;99.90;;;;;;5052652;28;20052;-77
2021/11/11 12:50:55;;;;;;;19.75;10.00;;;9.50;99.90;;;;;;5040397;28;20049;-77
2021/11/11 12:53:45;;;;;;;20.77;9.68;;;9.50;99.90;;;;;;5059561;28;20546;-77
2021/11/11 12:56:36;;;;;;;19.63;9.50;;;9.60;99.90;;;;;;5048769;28;20068;-77
2021/11/11 12:59:12;;;;;;;24.90;10.88;;;9.50;99.90;;;;;;5041768;28;20116;-76
2021/11/11 13:01:59;;;;;;;21.77;10.52;;;9.70;99.90;;;;;;5038865;28;20048;-77
2021/11/11 13:04:29;;;;;;;;;;;9.70;99.90;;;;;;5041059;28;20053;-77
2021/11/11 13:07:00;;;;;;;24.15;9.45;;;10.00;99.90;;;;;;5049867;28;19920;-78
2021/11/11 13:10:09;;;;;;;24.73;10.30;;;10.10;99.90;;;;;;5049648;28;20108;-78
2021/11/11 13:12:39;;;;;;;23.87;10.27;;;10.30;99.90;;;;;;5056416;28;20139;-78
2021/11/11 13:15:13;;;;;;;17.52;8.90;;;10.60;99.90;;;;;;5058442;28;20044;-78
2021/11/11 13:20:44;;;;;;;20.50;10.35;;;10.60;99.90;;;;;;5063100;28;20123;-78
2021/11/11 13:23:22;;;;;;;26.70;9.65;;;10.40;99.90;;;;;;5056803;28;20102;-79
2021/11/11 13:54:56;;;;;;;26.87;10.23;;;9.90;99.90;;;;;;5051965;28;20048;-78
2021/11/11 15:17:27;;;;;;;19.23;9.48;;;9.70;99.90;;;;;;5012576;28;20045;-90
2021/11/11 15:20:19;;;;;;;21.17;9.30;;;9.70;99.90;;;;;;5002973;28;20089;-89
2021/11/11 15:57:09;;;;;;;21.13;9.73;;;10.40;99.90;;;;;;5023312;28;20040;-92
2021/11/11 16:02:42;;;;;;;23.05;10.25;;;10.20;99.90;;;;;;5032503;28;20064;-93
2021/11/11 16:19:47;;;;;;;19.10;8.75;;;10.20;99.90;;;;;;5027203;28;20056;-91
2021/11/11 16:22:33;;;;;;;17.33;8.67;;;10.10;99.90;;;;;;5019419;28;20052;-92
2021/11/11 16:25:09;;;;;;;22.85;9.55;;;10.10;99.90;;;;;;5026282;28;20052;-91
2021/11/11 16:30:59;;;;;;;18.73;9.75;;;10.10;99.90;;;;;;5026553;28;20044;-92
2021/11/11 16:33:28;;;;;;;15.52;8.52;;;10.00;99.90;;;;;;5026507;28;20049;-91
2021/11/11 16:35:59;;;;;;;16.37;9.23;;;10.00;99.90;;;;;;5026614;28;20052;-91
2021/11/11 16:38:29;;;;;;;20.73;10.05;;;9.90;99.90;;;;;;5020694;28;20045;-91
2021/11/11 16:40:59;;;;;;;18.55;9.80;;;9.90;99.90;;;;;;5021209;28;20076;-91
2021/11/11 16:43:28;;;;;;;20.38;9.65;;;9.90;99.90;;;;;;5022802;28;20072;-91
2021/11/11 16:45:56;;;;;;;17.40;8.60;;;9.80;99.90;;;;;;5024145;28;20052;-91
2021/11/11 16:48:26;;;;;;;22.63;10.17;;;9.80;99.90;;;;;;5030473;28;20099;-91
2021/11/11 16:50:55;;;;;;;26.33;9.82;;;9.70;99.90;;;;;;5025888;28;20120;-90
2021/11/11 16:53:48;;;;;;;24.83;9.95;;;9.70;99.90;;;;;;5029907;28;20051;-92
2021/11/11 16:56:19;;;;;;;22.83;10.32;;;9.80;99.90;;;;;;5022298;28;20063;-87
2021/11/11 16:58:48;;;;;;;22.10;10.55;;;9.60;99.90;;;;;;5046253;28;20048;-90
2021/11/11 17:01:17;;;;;;;24.20;9.83;;;9.60;99.90;;;;;;5023100;28;20526;-92
2021/11/11 17:04:37;;;;;;;22.80;10.73;;;9.70;99.90;;;;;;5033959;28;20415;-87
2021/11/11 17:07:07;;;;;;;23.60;10.18;;;9.70;99.90;;;;;;5029961;28;20128;-91
2021/11/11 17:09:39;;;;;;;25.50;11.55;;;9.60;99.90;;;;;;5034071;28;20141;-90
2021/11/11 17:12:10;;;;;;;21.88;9.90;;;9.60;99.90;;;;;;5037719;28;20099;-89